Terminal Aerodrome Forecast
Issued by NWS Charleston, WV

Current Version | Previous Version | Text Only | Print | Product List | Glossary Off
Versions: 1 2 3 4 5 6 7 8 9 10 11 12 13 14 15 16 17 18 19 20 21 22 23

000
FTUS41 KRLX 240520
TAFPKB
TAF
KPKB 240520Z 2406/2506 00000KT P6SM SKC
     FM241300 14005KT P6SM FEW050
     FM241900 19006KT P6SM SCT045
     FM250000 00000KT P6SM SCT100=

USA.gov is the U.S. government's official web portal to all federal, state and local government web resources and services.